createdAt,value
2023-02-03T00:03:31.085Z,90.84
2023-02-03T00:08:32.681Z,91.31
2023-02-03T00:13:35.069Z,91.14
2023-02-03T00:18:36.672Z,90.58
2023-02-03T00:23:38.061Z,90.65
2023-02-03T00:28:39.670Z,91.28
2023-02-03T00:33:41.041Z,91.53
2023-02-03T00:38:42.479Z,91.44
2023-02-03T00:43:44.024Z,92.26
2023-02-03T00:48:45.392Z,92.28
2023-02-03T00:53:47.857Z,91.96
2023-02-03T00:58:49.338Z,91.58
2023-02-03T01:03:50.784Z,92.01
2023-02-03T01:08:52.712Z,91.11
2023-02-03T01:13:56.007Z,91.78
2023-02-03T01:18:57.620Z,91.08
2023-02-03T01:24:00.720Z,91.87
2023-02-03T01:29:02.626Z,91.76
2023-02-03T01:34:04.020Z,91.75
2023-02-03T01:39:06.032Z,91.86
2023-02-03T01:44:32.294Z,91.95
2023-02-03T01:49:36.610Z,92.56
2023-02-03T01:54:43.737Z,92.39
2023-02-03T01:59:46.039Z,93.83
2023-02-03T02:05:08.108Z,94.21
2023-02-03T02:10:10.253Z,94.82
2023-02-03T02:15:11.743Z,96.15
2023-02-03T02:21:00.323Z,97.14
2023-02-03T02:26:15.814Z,97.99
2023-02-03T02:31:36.247Z,97.07
2023-02-03T02:36:43.743Z,97.96
2023-02-03T02:42:05.237Z,97.38
2023-02-03T02:47:16.352Z,97.20
2023-02-03T02:52:18.913Z,97.12
2023-02-03T02:57:24.164Z,96.90
2023-02-03T03:02:36.646Z,96.22
2023-02-03T03:07:48.557Z,95.93
2023-02-03T03:12:54.809Z,95.43
2023-02-03T03:18:13.281Z,95.41
2023-02-03T03:23:28.939Z,95.20
2023-02-03T03:28:42.329Z,94.82
2023-02-03T03:33:44.301Z,94.31
2023-02-03T03:38:53.662Z,94.60
2023-02-03T03:44:00.828Z,94.57
2023-02-03T03:49:05.377Z,94.97
2023-02-03T03:54:14.743Z,94.64
2023-02-03T03:59:19.215Z,94.48
2023-02-03T04:04:24.233Z,93.31
2023-02-03T04:09:25.863Z,93.09
2023-02-03T04:14:30.184Z,93.27
2023-02-03T04:19:31.674Z,93.05
2023-02-03T04:24:33.091Z,92.97
2023-02-03T04:29:34.499Z,92.76
2023-02-03T04:34:35.886Z,93.60
2023-02-03T04:39:37.439Z,94.16
2023-02-03T04:44:38.869Z,94.42
2023-02-03T04:49:40.313Z,94.67
2023-02-03T04:54:41.831Z,93.71
2023-02-03T04:59:43.245Z,94.13
2023-02-03T05:04:44.667Z,94.50
2023-02-03T05:09:46.384Z,94.22
2023-02-03T05:14:47.822Z,93.37
2023-02-03T05:19:49.228Z,93.29
2023-02-03T05:24:50.636Z,93.85
2023-02-03T05:29:52.113Z,92.54
2023-02-03T05:34:53.499Z,92.83
2023-02-03T05:40:14.896Z,92.55
2023-02-03T05:45:17.071Z,91.75
2023-02-03T05:50:18.544Z,91.90
2023-02-03T05:55:19.936Z,91.95
2023-02-03T06:00:22.245Z,91.54
2023-02-03T06:05:24.966Z,91.53
2023-02-03T06:10:27.306Z,91.39
2023-02-03T06:15:28.923Z,90.73
2023-02-03T06:20:30.701Z,90.71
2023-02-03T06:25:32.793Z,91.04
2023-02-03T06:30:34.393Z,90.83
2023-02-03T06:35:36.404Z,91.65
2023-02-03T06:40:37.841Z,91.46
2023-02-03T06:45:39.249Z,91.52
2023-02-03T06:50:41.053Z,91.28
2023-02-03T06:55:42.485Z,92.06
2023-02-03T07:00:43.904Z,93.13
2023-02-03T07:05:45.349Z,93.42
2023-02-03T07:10:46.738Z,93.57
2023-02-03T07:15:48.194Z,94.20
2023-02-03T07:20:49.768Z,93.54
2023-02-03T07:25:51.146Z,93.96
2023-02-03T07:30:52.648Z,95.47
2023-02-03T07:35:54.935Z,95.39
2023-02-03T07:40:56.649Z,94.66
2023-02-03T07:45:58.196Z,94.63
2023-02-03T07:50:59.661Z,94.70
2023-02-03T07:56:02.645Z,94.14
2023-02-03T08:01:14.388Z,92.86
2023-02-03T08:06:16.382Z,92.71
2023-02-03T08:11:18.287Z,92.48
2023-02-03T08:16:19.809Z,92.46
2023-02-03T08:21:21.276Z,91.73
2023-02-03T08:26:23.098Z,92.17
2023-02-03T08:31:24.702Z,92.20
2023-02-03T08:36:26.210Z,91.25
2023-02-03T08:41:27.761Z,92.13
2023-02-03T08:46:29.221Z,92.32
2023-02-03T08:51:30.765Z,92.41
2023-02-03T08:56:34.079Z,92.38
2023-02-03T09:01:35.530Z,92.16
2023-02-03T09:06:37.347Z,92.37
2023-02-03T09:11:40.802Z,92.38
2023-02-03T09:16:42.339Z,92.23
2023-02-03T09:21:45.967Z,90.58
2023-02-03T09:26:48.693Z,90.33
2023-02-03T09:31:53.792Z,89.96
2023-02-03T09:36:55.210Z,91.42
2023-02-03T09:42:34.934Z,92.12
2023-02-03T09:47:42.161Z,93.38
2023-02-03T09:52:44.300Z,92.93
2023-02-03T09:58:03.599Z,92.13
2023-02-03T10:03:12.183Z,91.05
2023-02-03T10:08:19.514Z,90.14
2023-02-03T10:13:37.262Z,90.97
2023-02-03T10:18:45.983Z,90.08
2023-02-03T10:23:48.934Z,90.65
2023-02-03T10:28:58.722Z,89.86
2023-02-03T10:34:08.325Z,89.08
2023-02-03T10:39:21.876Z,89.44
2023-02-03T10:44:30.926Z,88.30
2023-02-03T10:49:32.463Z,88.56
2023-02-03T10:54:35.858Z,88.72
2023-02-03T10:59:42.450Z,88.69
2023-02-03T11:04:43.853Z,90.60
2023-02-03T11:09:45.259Z,90.21
2023-02-03T11:14:52.068Z,89.42
2023-02-03T11:19:56.220Z,90.39
2023-02-03T11:24:59.217Z,91.06
2023-02-03T11:30:14.749Z,90.75
2023-02-03T11:35:23.595Z,90.45
2023-02-03T11:40:27.713Z,89.96
2023-02-03T11:45:29.677Z,89.64
2023-02-03T11:50:46.541Z,90.16
2023-02-03T11:56:14.856Z,89.41
2023-02-03T12:01:18.985Z,89.97
2023-02-03T12:06:23.346Z,88.43
2023-02-03T12:11:51.033Z,89.16
2023-02-03T12:17:08.113Z,88.60
2023-02-03T12:22:29.532Z,87.91
2023-02-03T12:27:58.365Z,86.53
2023-02-03T12:33:28.905Z,86.77
2023-02-03T12:38:30.210Z,86.21
2023-02-03T12:43:41.935Z,85.77
2023-02-03T12:49:04.996Z,85.35
2023-02-03T12:54:31.051Z,84.25
2023-02-03T12:59:34.362Z,84.72
2023-02-03T13:04:47.386Z,83.68
2023-02-03T13:10:05.643Z,82.76
2023-02-03T13:15:22.317Z,81.89
2023-02-03T13:20:27.098Z,80.70
2023-02-03T13:25:50.399Z,80.70
2023-02-03T13:31:20.436Z,81.01
2023-02-03T13:36:51.555Z,81.36
2023-02-03T13:42:16.570Z,81.75
2023-02-03T13:47:24.714Z,82.01
2023-02-03T13:52:36.369Z,82.55
2023-02-03T13:57:38.720Z,82.56
2023-02-03T14:02:53.232Z,83.26
2023-02-03T14:07:54.798Z,83.65
2023-02-03T14:12:59.596Z,83.72
2023-02-03T14:18:31.441Z,83.47
2023-02-03T14:23:42.793Z,83.79
2023-02-03T14:28:46.444Z,84.62
2023-02-03T14:33:47.778Z,84.12
2023-02-03T14:38:50.221Z,84.31
2023-02-03T14:44:16.047Z,85.59
2023-02-03T14:49:37.761Z,85.83
2023-02-03T14:55:16.215Z,85.81
2023-02-03T15:00:21.426Z,86.32
2023-02-03T15:05:24.243Z,86.61
2023-02-03T15:10:38.602Z,86.63
2023-02-03T15:15:40.699Z,86.54
2023-02-03T15:20:47.001Z,86.07
2023-02-03T15:26:03.793Z,85.82
2023-02-03T15:31:17.648Z,86.21
2023-02-03T15:36:24.130Z,85.91
2023-02-03T15:41:26.528Z,86.34
2023-02-03T15:46:38.497Z,86.45
2023-02-03T15:51:51.811Z,87.00
2023-02-03T15:57:02.885Z,86.85
2023-02-03T16:02:19.446Z,87.12
2023-02-03T16:07:25.048Z,87.79
2023-02-03T16:12:31.673Z,87.72
2023-02-03T16:17:36.629Z,87.26
2023-02-03T16:22:39.890Z,87.79
2023-02-03T16:27:45.440Z,88.44
2023-02-03T16:33:27.159Z,88.38
2023-02-03T16:38:47.105Z,88.36
2023-02-03T16:44:07.083Z,89.13
2023-02-03T16:49:27.035Z,89.33
2023-02-03T16:54:28.499Z,90.60
2023-02-03T16:59:29.934Z,90.52
2023-02-03T17:04:31.371Z,90.63
2023-02-03T17:09:35.807Z,91.24
2023-02-03T17:14:37.216Z,91.07
2023-02-03T17:19:38.609Z,91.56
2023-02-03T17:24:40.024Z,90.96
2023-02-03T17:29:41.540Z,91.51
2023-02-03T17:34:43.803Z,91.08
2023-02-03T17:55:42.161Z,91.03
2023-02-03T18:00:43.552Z,91.35
2023-02-03T18:05:52.093Z,91.88
2023-02-03T18:10:53.532Z,92.11
2023-02-03T18:15:58.117Z,92.34
2023-02-03T18:20:59.505Z,91.63
2023-02-03T18:26:00.934Z,92.57
2023-02-03T18:37:24.677Z,93.42
2023-02-03T18:42:26.116Z,93.56
2023-02-03T18:47:27.621Z,93.72
2023-02-03T18:52:29.106Z,93.25
2023-02-03T18:57:30.579Z,92.88
2023-02-03T19:02:32.197Z,93.19
2023-02-03T19:07:33.644Z,93.06
2023-02-03T19:12:35.076Z,92.72
2023-02-03T19:17:37.153Z,93.30
2023-02-03T19:22:38.735Z,93.45
2023-02-03T19:27:40.163Z,93.81
2023-02-03T19:32:41.594Z,93.45
2023-02-03T19:37:43.045Z,93.83
2023-02-03T19:42:44.438Z,94.98
2023-02-03T19:47:45.844Z,95.52
2023-02-03T19:52:48.590Z,96.91
2023-02-03T19:57:50.058Z,97.52
2023-02-03T20:02:51.460Z,99.53
2023-02-03T20:07:53.221Z,99.70
2023-02-03T20:12:55.227Z,99.74
2023-02-03T20:17:56.685Z,100.00
2023-02-03T20:22:58.428Z,100.00
2023-02-03T20:28:02.461Z,100.00
2023-02-03T20:33:04.775Z,100.00
2023-02-03T20:38:06.293Z,100.00
2023-02-03T20:43:20.279Z,100.00
2023-02-03T20:48:25.431Z,100.00
2023-02-03T20:53:27.002Z,100.00
2023-02-03T20:58:32.508Z,100.00
2023-02-03T21:03:53.668Z,100.00
2023-02-03T21:09:01.755Z,100.00
2023-02-03T21:14:06.388Z,100.00
2023-02-03T21:19:14.696Z,100.00
2023-02-03T21:24:31.962Z,100.00
2023-02-03T21:29:34.387Z,100.00
2023-02-03T21:34:37.527Z,100.00
2023-02-03T21:39:38.937Z,100.00
2023-02-03T21:44:40.487Z,100.00
2023-02-03T21:49:41.946Z,100.00
2023-02-03T21:54:44.421Z,100.00
2023-02-03T21:59:47.017Z,100.00
2023-02-03T22:04:48.398Z,100.00
2023-02-03T22:09:51.485Z,100.00
2023-02-03T22:14:52.910Z,100.00
2023-02-03T22:19:54.334Z,100.00
2023-02-03T22:24:55.724Z,100.00
2023-02-03T22:29:57.120Z,100.00
2023-02-03T22:34:58.583Z,100.00
2023-02-03T22:40:00.214Z,100.00
2023-02-03T22:45:01.660Z,100.00
2023-02-03T22:50:04.722Z,100.00
2023-02-03T22:55:07.992Z,100.00
2023-02-03T23:00:11.013Z,100.00
2023-02-03T23:05:12.475Z,100.00
2023-02-03T23:10:18.058Z,100.00
2023-02-03T23:15:19.572Z,100.00
2023-02-03T23:20:21.728Z,100.00
2023-02-03T23:25:23.263Z,100.00
2023-02-03T23:30:24.667Z,100.00
2023-02-03T23:35:44.632Z,100.00
2023-02-03T23:40:46.262Z,100.00
2023-02-03T23:45:47.780Z,100.00
2023-02-03T23:50:49.313Z,100.00
2023-02-03T23:55:50.739Z,100.00
